sensor_id;sensor_type;location;lat;lon;timestamp;P1;durP1;ratioP1;P2;durP2;ratioP2
41653;SDS011;68687;52.030;7.110;2023-07-30T00:01:30;10.02;;;4.97;;
41653;SDS011;68687;52.030;7.110;2023-07-30T00:03:55;9.13;;;4.82;;
41653;SDS011;68687;52.030;7.110;2023-07-30T00:06:20;12.75;;;6.00;;
41653;SDS011;68687;52.030;7.110;2023-07-30T00:08:46;13.45;;;5.57;;
41653;SDS011;68687;52.030;7.110;2023-07-30T00:11:11;14.60;;;5.60;;
41653;SDS011;68687;52.030;7.110;2023-07-30T00:13:37;8.98;;;5.82;;
41653;SDS011;68687;52.030;7.110;2023-07-30T00:16:02;11.32;;;5.85;;
41653;SDS011;68687;52.030;7.110;2023-07-30T00:18:28;18.05;;;7.78;;
41653;SDS011;68687;52.030;7.110;2023-07-30T00:20:53;11.95;;;6.60;;
41653;SDS011;68687;52.030;7.110;2023-07-30T00:23:18;14.45;;;6.63;;
41653;SDS011;68687;52.030;7.110;2023-07-30T00:25:44;14.27;;;6.85;;
41653;SDS011;68687;52.030;7.110;2023-07-30T00:28:09;14.05;;;7.07;;
41653;SDS011;68687;52.030;7.110;2023-07-30T00:30:35;14.13;;;6.30;;
41653;SDS011;68687;52.030;7.110;2023-07-30T00:33:00;14.13;;;6.15;;
41653;SDS011;68687;52.030;7.110;2023-07-30T00:35:25;14.75;;;7.30;;
41653;SDS011;68687;52.030;7.110;2023-07-30T00:37:51;10.25;;;7.25;;
41653;SDS011;68687;52.030;7.110;2023-07-30T00:40:17;11.88;;;6.75;;
41653;SDS011;68687;52.030;7.110;2023-07-30T00:42:42;11.98;;;6.75;;
41653;SDS011;68687;52.030;7.110;2023-07-30T00:45:08;17.58;;;7.03;;
41653;SDS011;68687;52.030;7.110;2023-07-30T00:47:36;15.45;;;8.07;;
41653;SDS011;68687;52.030;7.110;2023-07-30T00:50:03;14.13;;;7.43;;
41653;SDS011;68687;52.030;7.110;2023-07-30T00:52:30;14.32;;;7.47;;
41653;SDS011;68687;52.030;7.110;2023-07-30T00:54:56;23.95;;;8.77;;
41653;SDS011;68687;52.030;7.110;2023-07-30T00:57:23;14.80;;;7.00;;
41653;SDS011;68687;52.030;7.110;2023-07-30T00:59:48;13.63;;;6.93;;
41653;SDS011;68687;52.030;7.110;2023-07-30T01:02:15;15.40;;;7.43;;
41653;SDS011;68687;52.030;7.110;2023-07-30T01:04:41;13.75;;;7.47;;
41653;SDS011;68687;52.030;7.110;2023-07-30T01:07:07;15.82;;;6.90;;
41653;SDS011;68687;52.030;7.110;2023-07-30T01:09:33;11.63;;;7.30;;
41653;SDS011;68687;52.030;7.110;2023-07-30T01:11:59;11.00;;;6.63;;
41653;SDS011;68687;52.030;7.110;2023-07-30T01:14:25;11.40;;;6.38;;
41653;SDS011;68687;52.030;7.110;2023-07-30T01:16:51;11.45;;;6.53;;
41653;SDS011;68687;52.030;7.110;2023-07-30T01:19:17;10.73;;;6.72;;
41653;SDS011;68687;52.030;7.110;2023-07-30T01:21:43;9.32;;;6.07;;
41653;SDS011;68687;52.030;7.110;2023-07-30T01:24:08;15.80;;;6.25;;
41653;SDS011;68687;52.030;7.110;2023-07-30T01:26:43;12.50;;;6.20;;
41653;SDS011;68687;52.030;7.110;2023-07-30T01:29:22;10.27;;;6.13;;
41653;SDS011;68687;52.030;7.110;2023-07-30T01:31:55;14.85;;;6.38;;
41653;SDS011;68687;52.030;7.110;2023-07-30T01:34:27;11.93;;;6.50;;
41653;SDS011;68687;52.030;7.110;2023-07-30T01:36:54;15.07;;;6.72;;
41653;SDS011;68687;52.030;7.110;2023-07-30T01:39:21;12.68;;;6.68;;
41653;SDS011;68687;52.030;7.110;2023-07-30T01:41:48;11.77;;;7.05;;
41653;SDS011;68687;52.030;7.110;2023-07-30T01:44:13;13.45;;;7.13;;
41653;SDS011;68687;52.030;7.110;2023-07-30T01:46:39;15.07;;;5.97;;
41653;SDS011;68687;52.030;7.110;2023-07-30T01:49:04;14.82;;;6.70;;
41653;SDS011;68687;52.030;7.110;2023-07-30T01:51:29;13.02;;;6.82;;
41653;SDS011;68687;52.030;7.110;2023-07-30T01:53:55;11.07;;;6.53;;
41653;SDS011;68687;52.030;7.110;2023-07-30T01:56:20;12.40;;;6.47;;
41653;SDS011;68687;52.030;7.110;2023-07-30T01:58:45;15.63;;;6.63;;
41653;SDS011;68687;52.030;7.110;2023-07-30T02:01:11;11.35;;;6.80;;
41653;SDS011;68687;52.030;7.110;2023-07-30T02:03:36;11.07;;;5.43;;
41653;SDS011;68687;52.030;7.110;2023-07-30T02:06:01;8.68;;;5.63;;
41653;SDS011;68687;52.030;7.110;2023-07-30T02:08:27;9.68;;;6.22;;
41653;SDS011;68687;52.030;7.110;2023-07-30T02:10:56;8.48;;;5.10;;
41653;SDS011;68687;52.030;7.110;2023-07-30T02:13:24;19.25;;;6.07;;
41653;SDS011;68687;52.030;7.110;2023-07-30T02:15:50;12.63;;;6.30;;
41653;SDS011;68687;52.030;7.110;2023-07-30T02:18:16;11.52;;;6.15;;
41653;SDS011;68687;52.030;7.110;2023-07-30T02:20:41;10.23;;;5.80;;
41653;SDS011;68687;52.030;7.110;2023-07-30T02:23:07;14.10;;;6.60;;
41653;SDS011;68687;52.030;7.110;2023-07-30T02:25:32;18.95;;;6.80;;
41653;SDS011;68687;52.030;7.110;2023-07-30T02:27:58;12.88;;;5.80;;
41653;SDS011;68687;52.030;7.110;2023-07-30T02:30:24;10.63;;;5.50;;
41653;SDS011;68687;52.030;7.110;2023-07-30T02:32:50;15.82;;;5.97;;
41653;SDS011;68687;52.030;7.110;2023-07-30T02:35:15;14.20;;;5.30;;
41653;SDS011;68687;52.030;7.110;2023-07-30T02:37:40;14.57;;;5.95;;
41653;SDS011;68687;52.030;7.110;2023-07-30T02:40:06;22.13;;;7.95;;
41653;SDS011;68687;52.030;7.110;2023-07-30T02:42:32;11.25;;;5.82;;
41653;SDS011;68687;52.030;7.110;2023-07-30T02:44:57;12.18;;;5.82;;
41653;SDS011;68687;52.030;7.110;2023-07-30T02:47:22;16.77;;;5.70;;
41653;SDS011;68687;52.030;7.110;2023-07-30T02:49:48;9.30;;;4.53;;
41653;SDS011;68687;52.030;7.110;2023-07-30T02:52:13;11.68;;;5.30;;
41653;SDS011;68687;52.030;7.110;2023-07-30T02:54:38;9.73;;;5.75;;
41653;SDS011;68687;52.030;7.110;2023-07-30T02:57:03;12.73;;;5.10;;
41653;SDS011;68687;52.030;7.110;2023-07-30T02:59:29;9.68;;;5.72;;
41653;SDS011;68687;52.030;7.110;2023-07-30T03:01:55;13.98;;;5.90;;
41653;SDS011;68687;52.030;7.110;2023-07-30T03:04:20;16.23;;;6.30;;
41653;SDS011;68687;52.030;7.110;2023-07-30T03:06:45;11.70;;;5.47;;
41653;SDS011;68687;52.030;7.110;2023-07-30T03:09:11;14.88;;;6.93;;
41653;SDS011;68687;52.030;7.110;2023-07-30T03:11:36;17.52;;;5.90;;
41653;SDS011;68687;52.030;7.110;2023-07-30T03:14:01;7.95;;;4.88;;
41653;SDS011;68687;52.030;7.110;2023-07-30T03:16:27;12.25;;;5.60;;
41653;SDS011;68687;52.030;7.110;2023-07-30T03:18:52;11.18;;;5.55;;
41653;SDS011;68687;52.030;7.110;2023-07-30T03:21:18;15.95;;;4.78;;
41653;SDS011;68687;52.030;7.110;2023-07-30T03:23:43;11.38;;;5.85;;
41653;SDS011;68687;52.030;7.110;2023-07-30T03:26:09;18.48;;;5.97;;
41653;SDS011;68687;52.030;7.110;2023-07-30T03:28:35;12.57;;;5.00;;
41653;SDS011;68687;52.030;7.110;2023-07-30T03:31:01;13.57;;;4.82;;
41653;SDS011;68687;52.030;7.110;2023-07-30T03:33:26;12.52;;;5.35;;
41653;SDS011;68687;52.030;7.110;2023-07-30T03:35:51;9.52;;;5.18;;
41653;SDS011;68687;52.030;7.110;2023-07-30T03:38:17;15.18;;;5.43;;
41653;SDS011;68687;52.030;7.110;2023-07-30T03:40:42;18.33;;;5.50;;
41653;SDS011;68687;52.030;7.110;2023-07-30T03:43:08;16.20;;;5.75;;
41653;SDS011;68687;52.030;7.110;2023-07-30T03:45:33;13.50;;;4.50;;
41653;SDS011;68687;52.030;7.110;2023-07-30T03:47:59;18.67;;;5.47;;
41653;SDS011;68687;52.030;7.110;2023-07-30T03:50:24;10.48;;;4.70;;
41653;SDS011;68687;52.030;7.110;2023-07-30T03:52:50;11.13;;;4.93;;
41653;SDS011;68687;52.030;7.110;2023-07-30T03:55:15;15.85;;;5.07;;
41653;SDS011;68687;52.030;7.110;2023-07-30T03:57:40;14.98;;;4.45;;
41653;SDS011;68687;52.030;7.110;2023-07-30T04:00:06;13.80;;;4.90;;
41653;SDS011;68687;52.030;7.110;2023-07-30T04:02:32;14.38;;;4.78;;
41653;SDS011;68687;52.030;7.110;2023-07-30T04:04:58;16.88;;;5.35;;
41653;SDS011;68687;52.030;7.110;2023-07-30T04:07:23;17.23;;;4.72;;
41653;SDS011;68687;52.030;7.110;2023-07-30T04:09:49;16.95;;;5.30;;
41653;SDS011;68687;52.030;7.110;2023-07-30T04:12:14;16.77;;;6.25;;
41653;SDS011;68687;52.030;7.110;2023-07-30T04:14:39;10.70;;;4.82;;
41653;SDS011;68687;52.030;7.110;2023-07-30T04:17:05;14.00;;;5.13;;
41653;SDS011;68687;52.030;7.110;2023-07-30T04:19:30;13.38;;;5.15;;
41653;SDS011;68687;52.030;7.110;2023-07-30T04:21:55;13.05;;;5.80;;
41653;SDS011;68687;52.030;7.110;2023-07-30T04:24:21;16.35;;;5.38;;
41653;SDS011;68687;52.030;7.110;2023-07-30T04:26:46;13.68;;;5.85;;
41653;SDS011;68687;52.030;7.110;2023-07-30T04:29:11;16.75;;;5.80;;
41653;SDS011;68687;52.030;7.110;2023-07-30T04:31:38;14.32;;;5.72;;
41653;SDS011;68687;52.030;7.110;2023-07-30T04:34:04;17.92;;;6.70;;
41653;SDS011;68687;52.030;7.110;2023-07-30T04:36:29;14.77;;;6.28;;
41653;SDS011;68687;52.030;7.110;2023-07-30T04:38:54;23.13;;;6.10;;
41653;SDS011;68687;52.030;7.110;2023-07-30T04:41:20;15.77;;;6.50;;
41653;SDS011;68687;52.030;7.110;2023-07-30T04:43:45;17.58;;;5.78;;
41653;SDS011;68687;52.030;7.110;2023-07-30T04:46:11;27.00;;;7.60;;
41653;SDS011;68687;52.030;7.110;2023-07-30T04:48:36;14.07;;;6.00;;
41653;SDS011;68687;52.030;7.110;2023-07-30T04:51:02;16.98;;;6.47;;
41653;SDS011;68687;52.030;7.110;2023-07-30T04:53:27;15.77;;;7.40;;
41653;SDS011;68687;52.030;7.110;2023-07-30T04:55:56;23.92;;;6.55;;
41653;SDS011;68687;52.030;7.110;2023-07-30T04:58:24;17.95;;;7.43;;
41653;SDS011;68687;52.030;7.110;2023-07-30T05:00:49;21.92;;;8.73;;
41653;SDS011;68687;52.030;7.110;2023-07-30T05:03:15;20.10;;;8.15;;
41653;SDS011;68687;52.030;7.110;2023-07-30T05:05:40;22.50;;;8.65;;
41653;SDS011;68687;52.030;7.110;2023-07-30T05:08:06;21.77;;;7.97;;
41653;SDS011;68687;52.030;7.110;2023-07-30T05:10:32;25.85;;;8.95;;
41653;SDS011;68687;52.030;7.110;2023-07-30T05:12:57;26.65;;;10.10;;
41653;SDS011;68687;52.030;7.110;2023-07-30T05:15:22;24.70;;;9.50;;
41653;SDS011;68687;52.030;7.110;2023-07-30T05:17:48;28.65;;;9.50;;
41653;SDS011;68687;52.030;7.110;2023-07-30T05:20:13;22.23;;;9.05;;
41653;SDS011;68687;52.030;7.110;2023-07-30T05:22:39;27.63;;;9.38;;
41653;SDS011;68687;52.030;7.110;2023-07-30T05:25:04;25.48;;;9.55;;
41653;SDS011;68687;52.030;7.110;2023-07-30T05:27:30;25.85;;;10.40;;
41653;SDS011;68687;52.030;7.110;2023-07-30T05:29:56;25.60;;;10.45;;
41653;SDS011;68687;52.030;7.110;2023-07-30T05:32:22;33.53;;;10.43;;
41653;SDS011;68687;52.030;7.110;2023-07-30T05:34:47;30.92;;;9.73;;
41653;SDS011;68687;52.030;7.110;2023-07-30T05:37:13;28.73;;;10.40;;
41653;SDS011;68687;52.030;7.110;2023-07-30T05:39:38;33.08;;;11.13;;
41653;SDS011;68687;52.030;7.110;2023-07-30T05:42:03;32.00;;;10.93;;
41653;SDS011;68687;52.030;7.110;2023-07-30T05:44:29;33.72;;;11.73;;
41653;SDS011;68687;52.030;7.110;2023-07-30T05:46:54;24.30;;;11.27;;
41653;SDS011;68687;52.030;7.110;2023-07-30T05:49:20;30.30;;;11.65;;
41653;SDS011;68687;52.030;7.110;2023-07-30T05:51:45;35.13;;;11.65;;
41653;SDS011;68687;52.030;7.110;2023-07-30T05:54:11;30.55;;;11.20;;
41653;SDS011;68687;52.030;7.110;2023-07-30T05:56:37;36.38;;;11.98;;
41653;SDS011;68687;52.030;7.110;2023-07-30T05:59:02;30.23;;;11.25;;
41653;SDS011;68687;52.030;7.110;2023-07-30T06:01:27;33.67;;;12.65;;
41653;SDS011;68687;52.030;7.110;2023-07-30T06:03:53;33.53;;;13.40;;
41653;SDS011;68687;52.030;7.110;2023-07-30T06:06:18;33.30;;;13.23;;
41653;SDS011;68687;52.030;7.110;2023-07-30T06:08:51;33.78;;;13.88;;
41653;SDS011;68687;52.030;7.110;2023-07-30T06:11:17;39.10;;;14.10;;
41653;SDS011;68687;52.030;7.110;2023-07-30T06:13:42;40.00;;;14.90;;
41653;SDS011;68687;52.030;7.110;2023-07-30T06:16:07;33.42;;;14.95;;
41653;SDS011;68687;52.030;7.110;2023-07-30T06:18:33;38.28;;;14.98;;
41653;SDS011;68687;52.030;7.110;2023-07-30T06:20:58;35.10;;;15.82;;
41653;SDS011;68687;52.030;7.110;2023-07-30T06:23:23;38.47;;;15.10;;
41653;SDS011;68687;52.030;7.110;2023-07-30T06:25:49;39.53;;;13.80;;
41653;SDS011;68687;52.030;7.110;2023-07-30T06:28:14;35.90;;;14.05;;
41653;SDS011;68687;52.030;7.110;2023-07-30T06:30:39;43.70;;;14.95;;
41653;SDS011;68687;52.030;7.110;2023-07-30T06:33:05;41.67;;;15.05;;
41653;SDS011;68687;52.030;7.110;2023-07-30T06:35:30;33.83;;;14.27;;
41653;SDS011;68687;52.030;7.110;2023-07-30T06:37:56;42.00;;;15.55;;
41653;SDS011;68687;52.030;7.110;2023-07-30T06:40:21;33.25;;;14.50;;
41653;SDS011;68687;52.030;7.110;2023-07-30T06:42:46;39.30;;;14.82;;
41653;SDS011;68687;52.030;7.110;2023-07-30T06:45:13;37.58;;;14.95;;
41653;SDS011;68687;52.030;7.110;2023-07-30T06:47:39;33.60;;;14.32;;
41653;SDS011;68687;52.030;7.110;2023-07-30T06:50:05;36.42;;;14.98;;
41653;SDS011;68687;52.030;7.110;2023-07-30T06:52:33;34.00;;;14.70;;
41653;SDS011;68687;52.030;7.110;2023-07-30T06:54:58;39.13;;;16.13;;
41653;SDS011;68687;52.030;7.110;2023-07-30T06:57:24;55.22;;;15.32;;
41653;SDS011;68687;52.030;7.110;2023-07-30T06:59:49;39.47;;;15.15;;
41653;SDS011;68687;52.030;7.110;2023-07-30T07:02:14;32.85;;;14.70;;
41653;SDS011;68687;52.030;7.110;2023-07-30T07:04:40;40.53;;;15.48;;
41653;SDS011;68687;52.030;7.110;2023-07-30T07:07:05;33.03;;;14.65;;
41653;SDS011;68687;52.030;7.110;2023-07-30T07:09:30;39.33;;;14.07;;
41653;SDS011;68687;52.030;7.110;2023-07-30T07:11:56;37.63;;;15.15;;
41653;SDS011;68687;52.030;7.110;2023-07-30T07:14:21;39.58;;;15.18;;
41653;SDS011;68687;52.030;7.110;2023-07-30T07:16:47;37.45;;;14.63;;
41653;SDS011;68687;52.030;7.110;2023-07-30T07:19:13;33.00;;;15.07;;
41653;SDS011;68687;52.030;7.110;2023-07-30T07:21:38;38.05;;;14.15;;
41653;SDS011;68687;52.030;7.110;2023-07-30T07:24:04;32.58;;;13.35;;
41653;SDS011;68687;52.030;7.110;2023-07-30T07:26:29;35.10;;;13.52;;
41653;SDS011;68687;52.030;7.110;2023-07-30T07:28:55;44.13;;;14.77;;
41653;SDS011;68687;52.030;7.110;2023-07-30T07:31:21;35.40;;;13.60;;
41653;SDS011;68687;52.030;7.110;2023-07-30T07:33:46;42.42;;;14.48;;
41653;SDS011;68687;52.030;7.110;2023-07-30T07:36:33;37.13;;;13.95;;
41653;SDS011;68687;52.030;7.110;2023-07-30T07:42:06;35.42;;;13.15;;
41653;SDS011;68687;52.030;7.110;2023-07-30T07:51:27;31.70;;;12.82;;
41653;SDS011;68687;52.030;7.110;2023-07-30T07:53:52;36.65;;;14.95;;
41653;SDS011;68687;52.030;7.110;2023-07-30T07:56:18;33.35;;;14.18;;
41653;SDS011;68687;52.030;7.110;2023-07-30T07:58:43;33.53;;;14.07;;
41653;SDS011;68687;52.030;7.110;2023-07-30T08:01:08;40.35;;;13.50;;
41653;SDS011;68687;52.030;7.110;2023-07-30T08:03:34;39.08;;;14.18;;
41653;SDS011;68687;52.030;7.110;2023-07-30T08:05:59;41.08;;;14.93;;
41653;SDS011;68687;52.030;7.110;2023-07-30T08:08:25;41.20;;;13.80;;
41653;SDS011;68687;52.030;7.110;2023-07-30T08:10:51;41.25;;;14.57;;
41653;SDS011;68687;52.030;7.110;2023-07-30T08:13:16;36.33;;;14.00;;
41653;SDS011;68687;52.030;7.110;2023-07-30T08:15:42;34.83;;;13.88;;
41653;SDS011;68687;52.030;7.110;2023-07-30T08:18:07;31.67;;;13.55;;
41653;SDS011;68687;52.030;7.110;2023-07-30T08:20:33;30.85;;;12.63;;
41653;SDS011;68687;52.030;7.110;2023-07-30T08:22:58;37.05;;;14.30;;
41653;SDS011;68687;52.030;7.110;2023-07-30T08:25:23;43.28;;;13.73;;
41653;SDS011;68687;52.030;7.110;2023-07-30T08:27:49;31.13;;;13.43;;
41653;SDS011;68687;52.030;7.110;2023-07-30T08:30:14;35.25;;;13.40;;
41653;SDS011;68687;52.030;7.110;2023-07-30T08:32:39;46.42;;;14.63;;
41653;SDS011;68687;52.030;7.110;2023-07-30T08:35:06;35.33;;;13.45;;
41653;SDS011;68687;52.030;7.110;2023-07-30T08:37:32;29.13;;;13.45;;
41653;SDS011;68687;52.030;7.110;2023-07-30T08:39:57;44.05;;;13.68;;
41653;SDS011;68687;52.030;7.110;2023-07-30T08:42:23;32.58;;;13.20;;
41653;SDS011;68687;52.030;7.110;2023-07-30T08:44:49;26.95;;;11.77;;
41653;SDS011;68687;52.030;7.110;2023-07-30T08:47:14;27.85;;;11.90;;
41653;SDS011;68687;52.030;7.110;2023-07-30T08:49:40;29.70;;;12.30;;
41653;SDS011;68687;52.030;7.110;2023-07-30T08:52:07;28.48;;;11.90;;
41653;SDS011;68687;52.030;7.110;2023-07-30T08:54:34;32.13;;;11.20;;
41653;SDS011;68687;52.030;7.110;2023-07-30T08:57:02;32.67;;;11.73;;
41653;SDS011;68687;52.030;7.110;2023-07-30T08:59:30;32.72;;;12.02;;
41653;SDS011;68687;52.030;7.110;2023-07-30T09:01:58;29.02;;;11.40;;
41653;SDS011;68687;52.030;7.110;2023-07-30T09:04:26;23.23;;;9.88;;
41653;SDS011;68687;52.030;7.110;2023-07-30T09:06:54;32.90;;;9.98;;
41653;SDS011;68687;52.030;7.110;2023-07-30T09:09:19;23.40;;;9.95;;
41653;SDS011;68687;52.030;7.110;2023-07-30T09:11:50;25.75;;;11.00;;
41653;SDS011;68687;52.030;7.110;2023-07-30T09:14:19;22.65;;;8.85;;
41653;SDS011;68687;52.030;7.110;2023-07-30T09:16:45;22.80;;;9.02;;
41653;SDS011;68687;52.030;7.110;2023-07-30T09:19:11;24.45;;;9.00;;
41653;SDS011;68687;52.030;7.110;2023-07-30T09:21:41;20.25;;;8.05;;
41653;SDS011;68687;52.030;7.110;2023-07-30T09:24:06;31.27;;;8.77;;
41653;SDS011;68687;52.030;7.110;2023-07-30T09:26:45;19.17;;;7.82;;
41653;SDS011;68687;52.030;7.110;2023-07-30T09:29:11;21.98;;;6.90;;
41653;SDS011;68687;52.030;7.110;2023-07-30T09:31:47;30.80;;;8.13;;
41653;SDS011;68687;52.030;7.110;2023-07-30T09:34:20;26.25;;;6.55;;
41653;SDS011;68687;52.030;7.110;2023-07-30T09:36:48;19.57;;;6.37;;
41653;SDS011;68687;52.030;7.110;2023-07-30T09:39:16;16.27;;;6.00;;
41653;SDS011;68687;52.030;7.110;2023-07-30T09:41:49;13.00;;;5.55;;
41653;SDS011;68687;52.030;7.110;2023-07-30T09:44:16;13.50;;;5.30;;
41653;SDS011;68687;52.030;7.110;2023-07-30T09:46:43;22.80;;;6.38;;
41653;SDS011;68687;52.030;7.110;2023-07-30T09:49:10;18.77;;;6.22;;
41653;SDS011;68687;52.030;7.110;2023-07-30T09:51:36;14.35;;;5.90;;
41653;SDS011;68687;52.030;7.110;2023-07-30T09:54:03;18.40;;;5.90;;
41653;SDS011;68687;52.030;7.110;2023-07-30T09:56:28;14.73;;;5.95;;
41653;SDS011;68687;52.030;7.110;2023-07-30T09:58:54;18.05;;;4.82;;
41653;SDS011;68687;52.030;7.110;2023-07-30T10:01:19;14.38;;;5.30;;
41653;SDS011;68687;52.030;7.110;2023-07-30T10:03:49;19.20;;;5.55;;
41653;SDS011;68687;52.030;7.110;2023-07-30T10:06:14;16.70;;;5.15;;
41653;SDS011;68687;52.030;7.110;2023-07-30T10:08:41;14.52;;;4.85;;
41653;SDS011;68687;52.030;7.110;2023-07-30T10:11:08;14.25;;;5.45;;
41653;SDS011;68687;52.030;7.110;2023-07-30T10:13:35;20.25;;;4.95;;
41653;SDS011;68687;52.030;7.110;2023-07-30T10:16:02;15.23;;;4.70;;
41653;SDS011;68687;52.030;7.110;2023-07-30T10:18:40;24.92;;;5.40;;
41653;SDS011;68687;52.030;7.110;2023-07-30T10:21:07;11.05;;;4.20;;
41653;SDS011;68687;52.030;7.110;2023-07-30T10:23:34;13.13;;;3.60;;
41653;SDS011;68687;52.030;7.110;2023-07-30T10:26:00;18.73;;;5.53;;
41653;SDS011;68687;52.030;7.110;2023-07-30T10:28:34;15.80;;;4.95;;
41653;SDS011;68687;52.030;7.110;2023-07-30T10:31:05;13.93;;;4.40;;
41653;SDS011;68687;52.030;7.110;2023-07-30T10:34:08;12.05;;;4.45;;
41653;SDS011;68687;52.030;7.110;2023-07-30T10:36:32;16.38;;;4.45;;
41653;SDS011;68687;52.030;7.110;2023-07-30T10:41:39;11.50;;;4.20;;
41653;SDS011;68687;52.030;7.110;2023-07-30T10:44:05;12.50;;;4.55;;
41653;SDS011;68687;52.030;7.110;2023-07-30T10:46:30;12.95;;;4.45;;
41653;SDS011;68687;52.030;7.110;2023-07-30T10:48:55;10.60;;;4.30;;
41653;SDS011;68687;52.030;7.110;2023-07-30T10:51:21;13.38;;;4.45;;
41653;SDS011;68687;52.030;7.110;2023-07-30T10:53:48;10.60;;;4.32;;
41653;SDS011;68687;52.030;7.110;2023-07-30T10:56:21;20.98;;;4.38;;
41653;SDS011;68687;52.030;7.110;2023-07-30T10:58:49;13.27;;;4.00;;
41653;SDS011;68687;52.030;7.110;2023-07-30T11:01:16;14.00;;;4.22;;
41653;SDS011;68687;52.030;7.110;2023-07-30T11:03:41;9.05;;;3.80;;
41653;SDS011;68687;52.030;7.110;2023-07-30T11:06:07;12.77;;;3.90;;
41653;SDS011;68687;52.030;7.110;2023-07-30T11:11:06;15.48;;;3.22;;
41653;SDS011;68687;52.030;7.110;2023-07-30T11:13:36;9.25;;;3.20;;
41653;SDS011;68687;52.030;7.110;2023-07-30T11:16:04;10.52;;;3.30;;
41653;SDS011;68687;52.030;7.110;2023-07-30T11:18:30;10.73;;;4.28;;
41653;SDS011;68687;52.030;7.110;2023-07-30T11:21:05;11.68;;;4.55;;
41653;SDS011;68687;52.030;7.110;2023-07-30T11:23:31;13.80;;;4.47;;
41653;SDS011;68687;52.030;7.110;2023-07-30T11:25:59;8.30;;;4.10;;
41653;SDS011;68687;52.030;7.110;2023-07-30T11:28:29;12.90;;;3.40;;
41653;SDS011;68687;52.030;7.110;2023-07-30T11:30:57;9.80;;;3.78;;
41653;SDS011;68687;52.030;7.110;2023-07-30T11:33:24;9.38;;;3.25;;
41653;SDS011;68687;52.030;7.110;2023-07-30T11:35:50;10.77;;;3.78;;
41653;SDS011;68687;52.030;7.110;2023-07-30T11:38:15;8.25;;;3.38;;
41653;SDS011;68687;52.030;7.110;2023-07-30T11:40:42;7.45;;;3.60;;
41653;SDS011;68687;52.030;7.110;2023-07-30T11:43:07;8.98;;;3.85;;
41653;SDS011;68687;52.030;7.110;2023-07-30T11:45:33;8.20;;;3.33;;
41653;SDS011;68687;52.030;7.110;2023-07-30T11:48:06;11.32;;;3.95;;
41653;SDS011;68687;52.030;7.110;2023-07-30T11:50:49;8.00;;;3.57;;
41653;SDS011;68687;52.030;7.110;2023-07-30T11:53:16;10.55;;;3.65;;
41653;SDS011;68687;52.030;7.110;2023-07-30T11:55:43;9.77;;;3.30;;
41653;SDS011;68687;52.030;7.110;2023-07-30T11:58:09;14.82;;;3.50;;
41653;SDS011;68687;52.030;7.110;2023-07-30T12:00:36;8.73;;;3.83;;
41653;SDS011;68687;52.030;7.110;2023-07-30T12:03:03;8.77;;;3.00;;
41653;SDS011;68687;52.030;7.110;2023-07-30T12:05:32;6.28;;;2.70;;
41653;SDS011;68687;52.030;7.110;2023-07-30T12:08:06;12.18;;;3.45;;
41653;SDS011;68687;52.030;7.110;2023-07-30T12:10:42;6.70;;;3.03;;
41653;SDS011;68687;52.030;7.110;2023-07-30T12:13:12;5.85;;;3.35;;
41653;SDS011;68687;52.030;7.110;2023-07-30T12:15:42;8.68;;;2.72;;
41653;SDS011;68687;52.030;7.110;2023-07-30T12:18:28;6.60;;;2.60;;
41653;SDS011;68687;52.030;7.110;2023-07-30T12:20:59;14.35;;;2.72;;
41653;SDS011;68687;52.030;7.110;2023-07-30T12:23:25;5.13;;;2.28;;
41653;SDS011;68687;52.030;7.110;2023-07-30T12:25:50;6.88;;;2.70;;
41653;SDS011;68687;52.030;7.110;2023-07-30T12:28:16;3.22;;;2.20;;
41653;SDS011;68687;52.030;7.110;2023-07-30T12:30:47;6.13;;;2.67;;
41653;SDS011;68687;52.030;7.110;2023-07-30T12:33:13;7.57;;;2.63;;
41653;SDS011;68687;52.030;7.110;2023-07-30T12:35:38;6.65;;;2.50;;
41653;SDS011;68687;52.030;7.110;2023-07-30T12:38:07;8.15;;;2.75;;
41653;SDS011;68687;52.030;7.110;2023-07-30T12:40:35;8.15;;;3.08;;
41653;SDS011;68687;52.030;7.110;2023-07-30T12:43:01;5.70;;;2.60;;
41653;SDS011;68687;52.030;7.110;2023-07-30T12:45:28;7.88;;;2.72;;
41653;SDS011;68687;52.030;7.110;2023-07-30T12:47:58;9.68;;;2.83;;
41653;SDS011;68687;52.030;7.110;2023-07-30T12:50:23;9.05;;;3.10;;
41653;SDS011;68687;52.030;7.110;2023-07-30T12:52:48;7.10;;;3.45;;
41653;SDS011;68687;52.030;7.110;2023-07-30T12:55:14;12.35;;;3.45;;
41653;SDS011;68687;52.030;7.110;2023-07-30T12:57:39;5.45;;;4.00;;
41653;SDS011;68687;52.030;7.110;2023-07-30T13:00:05;5.90;;;3.92;;
41653;SDS011;68687;52.030;7.110;2023-07-30T13:02:30;6.03;;;4.18;;
41653;SDS011;68687;52.030;7.110;2023-07-30T13:04:58;6.07;;;4.07;;
41653;SDS011;68687;52.030;7.110;2023-07-30T13:07:24;13.88;;;3.92;;
41653;SDS011;68687;52.030;7.110;2023-07-30T13:09:54;9.40;;;4.25;;
41653;SDS011;68687;52.030;7.110;2023-07-30T13:12:27;9.60;;;4.55;;
41653;SDS011;68687;52.030;7.110;2023-07-30T13:14:53;11.98;;;4.18;;
41653;SDS011;68687;52.030;7.110;2023-07-30T13:17:18;8.77;;;3.63;;
41653;SDS011;68687;52.030;7.110;2023-07-30T13:19:43;7.68;;;3.15;;
41653;SDS011;68687;52.030;7.110;2023-07-30T13:22:08;7.70;;;2.53;;
41653;SDS011;68687;52.030;7.110;2023-07-30T13:24:34;9.77;;;3.47;;
41653;SDS011;68687;52.030;7.110;2023-07-30T13:27:00;10.05;;;3.00;;
41653;SDS011;68687;52.030;7.110;2023-07-30T13:29:26;7.40;;;3.90;;
41653;SDS011;68687;52.030;7.110;2023-07-30T13:31:51;8.15;;;3.25;;
41653;SDS011;68687;52.030;7.110;2023-07-30T13:34:16;8.15;;;2.78;;
41653;SDS011;68687;52.030;7.110;2023-07-30T13:36:42;10.73;;;3.30;;
41653;SDS011;68687;52.030;7.110;2023-07-30T13:39:07;8.82;;;2.92;;
41653;SDS011;68687;52.030;7.110;2023-07-30T13:41:32;10.30;;;3.63;;
41653;SDS011;68687;52.030;7.110;2023-07-30T13:43:57;8.63;;;2.95;;
41653;SDS011;68687;52.030;7.110;2023-07-30T13:46:23;8.25;;;3.38;;
41653;SDS011;68687;52.030;7.110;2023-07-30T13:48:48;6.55;;;2.78;;
41653;SDS011;68687;52.030;7.110;2023-07-30T13:51:13;8.30;;;2.83;;
41653;SDS011;68687;52.030;7.110;2023-07-30T13:53:39;6.15;;;2.72;;
41653;SDS011;68687;52.030;7.110;2023-07-30T13:56:06;5.68;;;2.40;;
41653;SDS011;68687;52.030;7.110;2023-07-30T13:58:34;4.75;;;2.60;;
41653;SDS011;68687;52.030;7.110;2023-07-30T14:00:59;6.38;;;2.38;;
41653;SDS011;68687;52.030;7.110;2023-07-30T14:03:24;6.97;;;2.55;;
41653;SDS011;68687;52.030;7.110;2023-07-30T14:05:50;5.68;;;2.35;;
41653;SDS011;68687;52.030;7.110;2023-07-30T14:08:15;6.25;;;2.88;;
41653;SDS011;68687;52.030;7.110;2023-07-30T14:10:40;11.63;;;2.80;;
41653;SDS011;68687;52.030;7.110;2023-07-30T14:13:06;8.70;;;2.90;;
41653;SDS011;68687;52.030;7.110;2023-07-30T14:15:31;6.20;;;2.60;;
41653;SDS011;68687;52.030;7.110;2023-07-30T14:17:56;7.68;;;3.00;;
41653;SDS011;68687;52.030;7.110;2023-07-30T14:20:22;8.98;;;3.03;;
41653;SDS011;68687;52.030;7.110;2023-07-30T14:22:47;7.75;;;2.80;;
41653;SDS011;68687;52.030;7.110;2023-07-30T14:25:14;7.95;;;2.70;;
41653;SDS011;68687;52.030;7.110;2023-07-30T14:27:39;4.65;;;2.50;;
41653;SDS011;68687;52.030;7.110;2023-07-30T14:30:05;4.60;;;2.38;;
41653;SDS011;68687;52.030;7.110;2023-07-30T14:32:34;5.75;;;2.65;;
41653;SDS011;68687;52.030;7.110;2023-07-30T14:34:59;13.35;;;2.50;;
41653;SDS011;68687;52.030;7.110;2023-07-30T14:37:24;5.60;;;2.50;;
41653;SDS011;68687;52.030;7.110;2023-07-30T14:39:50;5.78;;;2.22;;
41653;SDS011;68687;52.030;7.110;2023-07-30T14:42:15;9.70;;;2.70;;
41653;SDS011;68687;52.030;7.110;2023-07-30T14:44:40;7.15;;;2.50;;